sensor_id;sensor_type;location;lat;lon;timestamp;pressure;altitude;pressure_sealevel;temperature;humidity
62617;BME280;62539;51.190;6.808;2023-10-13T00:01:53;101023.06;;;21.03;67.84
62617;BME280;62539;51.190;6.808;2023-10-13T00:04:20;101025.81;;;21.00;68.11
62617;BME280;62539;51.190;6.808;2023-10-13T00:06:53;101019.75;;;20.98;68.14
62617;BME280;62539;51.190;6.808;2023-10-13T00:09:22;101029.38;;;20.99;68.17
62617;BME280;62539;51.190;6.808;2023-10-13T00:11:55;101012.63;;;21.00;67.61
62617;BME280;62539;51.190;6.808;2023-10-13T00:14:21;101016.19;;;20.99;68.01
62617;BME280;62539;51.190;6.808;2023-10-13T00:16:47;101012.59;;;21.02;67.84
62617;BME280;62539;51.190;6.808;2023-10-13T00:19:37;101006.56;;;20.98;68.20
62617;BME280;62539;51.190;6.808;2023-10-13T00:22:09;101004.06;;;20.95;68.22
62617;BME280;62539;51.190;6.808;2023-10-13T00:24:37;100998.84;;;20.93;68.10
62617;BME280;62539;51.190;6.808;2023-10-13T00:27:14;100990.88;;;20.95;68.16
62617;BME280;62539;51.190;6.808;2023-10-13T00:29:53;100992.56;;;20.96;68.19
62617;BME280;62539;51.190;6.808;2023-10-13T00:32:39;100989.94;;;20.96;68.38
62617;BME280;62539;51.190;6.808;2023-10-13T00:35:09;100992.69;;;20.93;68.15
62617;BME280;62539;51.190;6.808;2023-10-13T00:37:38;100977.94;;;20.89;68.12
62617;BME280;62539;51.190;6.808;2023-10-13T00:40:09;100983.28;;;20.87;68.31
62617;BME280;62539;51.190;6.808;2023-10-13T00:43:00;100977.25;;;20.83;68.74
62617;BME280;62539;51.190;6.808;2023-10-13T00:48:29;100977.25;;;20.83;68.49
62617;BME280;62539;51.190;6.808;2023-10-13T00:51:06;100972.88;;;20.84;68.56
62617;BME280;62539;51.190;6.808;2023-10-13T00:53:34;100973.69;;;20.84;68.34
62617;BME280;62539;51.190;6.808;2023-10-13T00:56:03;100967.63;;;20.82;68.34
62617;BME280;62539;51.190;6.808;2023-10-13T00:58:36;100965.78;;;20.84;68.42
62617;BME280;62539;51.190;6.808;2023-10-13T01:01:05;100962.22;;;20.85;68.40
62617;BME280;62539;51.190;6.808;2023-10-13T01:03:52;100960.72;;;20.80;68.60
62617;BME280;62539;51.190;6.808;2023-10-13T01:06:30;100962.34;;;20.82;68.13
62617;BME280;62539;51.190;6.808;2023-10-13T01:09:09;100957.22;;;20.79;68.48
62617;BME280;62539;51.190;6.808;2023-10-13T01:11:46;100962.34;;;20.82;68.32
62617;BME280;62539;51.190;6.808;2023-10-13T01:14:17;100948.34;;;20.82;68.46
62617;BME280;62539;51.190;6.808;2023-10-13T01:16:44;100958.13;;;20.78;68.53
62617;BME280;62539;51.190;6.808;2023-10-13T01:19:15;100940.56;;;20.79;68.39
62617;BME280;62539;51.190;6.808;2023-10-13T01:21:50;100940.47;;;20.80;68.75
62617;BME280;62539;51.190;6.808;2023-10-13T01:24:22;100942.06;;;20.84;68.46
62617;BME280;62539;51.190;6.808;2023-10-13T01:26:50;100937.03;;;20.78;68.70
62617;BME280;62539;51.190;6.808;2023-10-13T01:29:18;100930.81;;;20.81;68.67
62617;BME280;62539;51.190;6.808;2023-10-13T01:31:45;100927.25;;;20.82;68.65
62617;BME280;62539;51.190;6.808;2023-10-13T01:34:16;100933.19;;;20.87;67.98
62617;BME280;62539;51.190;6.808;2023-10-13T01:36:53;100929.75;;;20.85;68.71
62617;BME280;62539;51.190;6.808;2023-10-13T01:39:21;100927.13;;;20.85;68.39
62617;BME280;62539;51.190;6.808;2023-10-13T01:41:52;100922.03;;;20.80;68.90
62617;BME280;62539;51.190;6.808;2023-10-13T01:44:21;100923.59;;;20.84;68.67
62617;BME280;62539;51.190;6.808;2023-10-13T01:46:47;100911.28;;;20.85;68.53
62617;BME280;62539;51.190;6.808;2023-10-13T01:49:13;100908.44;;;20.90;68.22
62617;BME280;62539;51.190;6.808;2023-10-13T01:51:42;100908.56;;;20.87;68.37
62617;BME280;62539;51.190;6.808;2023-10-13T01:54:08;100900.13;;;20.78;69.02
62617;BME280;62539;51.190;6.808;2023-10-13T01:56:38;100898.16;;;20.83;68.62
62617;BME280;62539;51.190;6.808;2023-10-13T01:59:11;100896.53;;;20.81;69.11
62617;BME280;62539;51.190;6.808;2023-10-13T02:01:37;100889.47;;;20.81;68.59
62617;BME280;62539;51.190;6.808;2023-10-13T02:04:05;100878.91;;;20.81;68.76
62617;BME280;62539;51.190;6.808;2023-10-13T02:06:32;100878.00;;;20.82;68.75
62617;BME280;62539;51.190;6.808;2023-10-13T02:09:07;100875.47;;;20.79;69.22
62617;BME280;62539;51.190;6.808;2023-10-13T02:11:43;100877.06;;;20.83;68.66
62617;BME280;62539;51.190;6.808;2023-10-13T02:14:13;100875.22;;;20.85;68.33
62617;BME280;62539;51.190;6.808;2023-10-13T02:16:42;100872.53;;;20.87;68.69
62617;BME280;62539;51.190;6.808;2023-10-13T02:19:12;100872.72;;;20.82;68.65
62617;BME280;62539;51.190;6.808;2023-10-13T02:21:40;100866.53;;;20.83;68.35
62617;BME280;62539;51.190;6.808;2023-10-13T02:24:09;100860.59;;;20.78;69.00
62617;BME280;62539;51.190;6.808;2023-10-13T02:26:44;100856.19;;;20.77;68.83
62617;BME280;62539;51.190;6.808;2023-10-13T02:29:10;100850.00;;;20.80;68.85
62617;BME280;62539;51.190;6.808;2023-10-13T02:31:42;100848.06;;;20.83;68.55
62617;BME280;62539;51.190;6.808;2023-10-13T02:34:18;100846.47;;;20.79;69.21
62617;BME280;62539;51.190;6.808;2023-10-13T02:36:43;100850.94;;;20.77;69.18
62617;BME280;62539;51.190;6.808;2023-10-13T02:39:16;100843.09;;;20.76;69.55
62617;BME280;62539;51.190;6.808;2023-10-13T02:41:49;100845.78;;;20.74;69.84
62617;BME280;62539;51.190;6.808;2023-10-13T02:44:15;100845.91;;;20.71;69.68
62617;BME280;62539;51.190;6.808;2023-10-13T02:46:51;100837.88;;;20.74;69.83
62617;BME280;62539;51.190;6.808;2023-10-13T02:49:20;100840.50;;;20.74;69.55
62617;BME280;62539;51.190;6.808;2023-10-13T02:51:45;100833.63;;;20.71;69.72
62617;BME280;62539;51.190;6.808;2023-10-13T02:54:11;100826.53;;;20.72;69.57
62617;BME280;62539;51.190;6.808;2023-10-13T02:56:43;100823.13;;;20.70;70.26
62617;BME280;62539;51.190;6.808;2023-10-13T02:59:15;100820.44;;;20.71;70.00
62617;BME280;62539;51.190;6.808;2023-10-13T03:01:44;100816.78;;;20.74;70.00
62617;BME280;62539;51.190;6.808;2023-10-13T03:04:10;100808.75;;;20.77;69.67
62617;BME280;62539;51.190;6.808;2023-10-13T03:06:38;100813.50;;;20.69;70.05
62617;BME280;62539;51.190;6.808;2023-10-13T03:09:08;100803.88;;;20.68;70.34
62617;BME280;62539;51.190;6.808;2023-10-13T03:11:52;100799.53;;;20.67;70.50
62617;BME280;62539;51.190;6.808;2023-10-13T03:14:19;100794.13;;;20.70;69.89
62617;BME280;62539;51.190;6.808;2023-10-13T03:17:00;100785.50;;;20.66;70.31
62617;BME280;62539;51.190;6.808;2023-10-13T03:19:45;100790.81;;;20.65;70.42
62617;BME280;62539;51.190;6.808;2023-10-13T03:22:19;100778.56;;;20.64;70.62
62617;BME280;62539;51.190;6.808;2023-10-13T03:24:55;100770.53;;;20.67;70.21
62617;BME280;62539;51.190;6.808;2023-10-13T03:27:25;100769.59;;;20.68;70.28
62617;BME280;62539;51.190;6.808;2023-10-13T03:30:05;100774.22;;;20.63;70.26
62617;BME280;62539;51.190;6.808;2023-10-13T03:32:38;100765.53;;;20.61;70.42
62617;BME280;62539;51.190;6.808;2023-10-13T03:35:09;100755.78;;;20.63;70.28
62617;BME280;62539;51.190;6.808;2023-10-13T03:37:52;100748.66;;;20.65;70.08
62617;BME280;62539;51.190;6.808;2023-10-13T03:40:17;100754.84;;;20.64;70.24
62617;BME280;62539;51.190;6.808;2023-10-13T03:42:46;100744.56;;;20.58;70.78
62617;BME280;62539;51.190;6.808;2023-10-13T03:45:35;100743.00;;;20.53;70.49
62617;BME280;62539;51.190;6.808;2023-10-13T03:48:18;100746.69;;;20.49;70.86
62617;BME280;62539;51.190;6.808;2023-10-13T03:50:55;100733.25;;;20.55;70.38
62617;BME280;62539;51.190;6.808;2023-10-13T03:53:41;100722.69;;;20.55;70.40
62617;BME280;62539;51.190;6.808;2023-10-13T03:56:24;100723.50;;;20.58;70.31
62617;BME280;62539;51.190;6.808;2023-10-13T03:58:57;100722.50;;;20.60;70.45
62617;BME280;62539;51.190;6.808;2023-10-13T04:01:26;100721.13;;;20.51;71.02
62617;BME280;62539;51.190;6.808;2023-10-13T04:04:09;100719.41;;;20.50;71.11
62617;BME280;62539;51.190;6.808;2023-10-13T04:06:40;100717.66;;;20.51;71.19
62617;BME280;62539;51.190;6.808;2023-10-13T04:09:22;100716.59;;;20.55;70.79
62617;BME280;62539;51.190;6.808;2023-10-13T04:12:03;100715.66;;;20.56;70.69
62617;BME280;62539;51.190;6.808;2023-10-13T04:14:32;100717.44;;;20.55;70.65
62617;BME280;62539;51.190;6.808;2023-10-13T04:17:19;100715.84;;;20.51;70.79
62617;BME280;62539;51.190;6.808;2023-10-13T04:19:48;100715.66;;;20.56;70.87
62617;BME280;62539;51.190;6.808;2023-10-13T04:22:41;100713.09;;;20.54;70.86
62617;BME280;62539;51.190;6.808;2023-10-13T04:25:27;100703.47;;;20.53;71.07
62617;BME280;62539;51.190;6.808;2023-10-13T04:28:09;100708.69;;;20.55;70.89
62617;BME280;62539;51.190;6.808;2023-10-13T04:30:42;100690.94;;;20.59;70.43
62617;BME280;62539;51.190;6.808;2023-10-13T04:33:25;100691.72;;;20.61;70.49
62617;BME280;62539;51.190;6.808;2023-10-13T04:36:14;100677.06;;;20.55;71.02
62617;BME280;62539;51.190;6.808;2023-10-13T04:38:54;100671.84;;;20.53;70.81
62617;BME280;62539;51.190;6.808;2023-10-13T04:41:24;100670.13;;;20.52;71.22
62617;BME280;62539;51.190;6.808;2023-10-13T04:43:57;100664.66;;;20.57;70.78
62617;BME280;62539;51.190;6.808;2023-10-13T04:46:30;100665.66;;;20.54;71.03
62617;BME280;62539;51.190;6.808;2023-10-13T04:49:22;100654.31;;;20.52;71.53
62617;BME280;62539;51.190;6.808;2023-10-13T04:51:58;100649.97;;;20.51;71.62
62617;BME280;62539;51.190;6.808;2023-10-13T04:54:26;100647.34;;;20.51;71.27
62617;BME280;62539;51.190;6.808;2023-10-13T04:57:02;100646.28;;;20.55;71.04
62617;BME280;62539;51.190;6.808;2023-10-13T04:59:47;100643.78;;;20.52;71.53
62617;BME280;62539;51.190;6.808;2023-10-13T05:02:22;100642.84;;;20.53;71.12
62617;BME280;62539;51.190;6.808;2023-10-13T05:05:03;100644.69;;;20.51;71.40
62617;BME280;62539;51.190;6.808;2023-10-13T05:07:42;100638.44;;;20.54;71.42
62617;BME280;62539;51.190;6.808;2023-10-13T05:10:28;100642.00;;;20.53;71.55
62617;BME280;62539;51.190;6.808;2023-10-13T05:13:12;100643.84;;;20.51;71.62
62617;BME280;62539;51.190;6.808;2023-10-13T05:15:56;100641.00;;;20.55;71.82
62617;BME280;62539;51.190;6.808;2023-10-13T05:18:40;100642.72;;;20.56;71.60
62617;BME280;62539;51.190;6.808;2023-10-13T05:21:25;100645.22;;;20.60;71.83
62617;BME280;62539;51.190;6.808;2023-10-13T05:24:09;100641.00;;;20.55;71.98
62617;BME280;62539;51.190;6.808;2023-10-13T05:26:53;100641.13;;;20.52;72.17
62617;BME280;62539;51.190;6.808;2023-10-13T05:29:45;100646.56;;;20.49;72.05
62617;BME280;62539;51.190;6.808;2023-10-13T05:32:30;100645.63;;;20.50;72.12
62617;BME280;62539;51.190;6.808;2023-10-13T05:35:15;100642.84;;;20.53;71.65
62617;BME280;62539;51.190;6.808;2023-10-13T05:38:00;100649.28;;;20.48;72.23
62617;BME280;62539;51.190;6.808;2023-10-13T05:40:58;100653.53;;;20.50;72.25
62617;BME280;62539;51.190;6.808;2023-10-13T05:43:43;100665.13;;;20.46;72.53
62617;BME280;62539;51.190;6.808;2023-10-13T05:46:28;100658.81;;;20.50;72.50
62617;BME280;62539;51.190;6.808;2023-10-13T05:49:14;100656.94;;;20.52;72.06
62617;BME280;62539;51.190;6.808;2023-10-13T05:51:43;100657.97;;;20.50;72.41
62617;BME280;62539;51.190;6.808;2023-10-13T05:54:13;100662.22;;;20.52;72.86
62617;BME280;62539;51.190;6.808;2023-10-13T05:56:48;100665.91;;;20.48;72.90
62617;BME280;62539;51.190;6.808;2023-10-13T05:59:35;100672.19;;;20.46;73.90
62617;BME280;62539;51.190;6.808;2023-10-13T06:02:37;100683.72;;;20.43;74.90
62617;BME280;62539;51.190;6.808;2023-10-13T06:05:21;100681.16;;;20.41;75.71
62617;BME280;62539;51.190;6.808;2023-10-13T06:08:05;100683.19;;;20.35;75.76
62617;BME280;62539;51.190;6.808;2023-10-13T06:10:49;100668.97;;;20.39;76.21
62617;BME280;62539;51.190;6.808;2023-10-13T06:13:33;100666.19;;;20.42;75.39
62617;BME280;62539;51.190;6.808;2023-10-13T06:16:17;100659.22;;;20.41;76.04
62617;BME280;62539;51.190;6.808;2023-10-13T06:19:02;100657.50;;;20.40;76.00
62617;BME280;62539;51.190;6.808;2023-10-13T06:21:46;100648.09;;;20.34;76.05
62617;BME280;62539;51.190;6.808;2023-10-13T06:24:34;100634.72;;;20.39;76.23
62617;BME280;62539;51.190;6.808;2023-10-13T06:27:18;100624.31;;;20.36;76.36
62617;BME280;62539;51.190;6.808;2023-10-13T06:30:02;100617.13;;;20.39;76.30
62617;BME280;62539;51.190;6.808;2023-10-13T06:32:31;100594.22;;;20.41;76.20
62617;BME280;62539;51.190;6.808;2023-10-13T06:34:59;100590.72;;;20.41;76.20
62617;BME280;62539;51.190;6.808;2023-10-13T06:37:43;100587.78;;;20.47;75.88
62617;BME280;62539;51.190;6.808;2023-10-13T06:40:10;100566.72;;;20.47;75.68
62617;BME280;62539;51.190;6.808;2023-10-13T06:42:55;100552.84;;;20.44;75.93
62617;BME280;62539;51.190;6.808;2023-10-13T06:45:36;100557.88;;;20.48;75.41
62617;BME280;62539;51.190;6.808;2023-10-13T06:48:03;100567.63;;;20.46;75.56
62617;BME280;62539;51.190;6.808;2023-10-13T06:50:30;100564.22;;;20.44;75.93
62617;BME280;62539;51.190;6.808;2023-10-13T06:53:04;100570.22;;;20.48;75.81
62617;BME280;62539;51.190;6.808;2023-10-13T06:55:30;100577.06;;;20.52;75.45
62617;BME280;62539;51.190;6.808;2023-10-13T06:58:02;100576.97;;;20.53;75.39
62617;BME280;62539;51.190;6.808;2023-10-13T07:00:31;100576.31;;;20.48;75.76
62617;BME280;62539;51.190;6.808;2023-10-13T07:03:00;100578.03;;;20.49;75.59
62617;BME280;62539;51.190;6.808;2023-10-13T07:05:38;100574.97;;;20.59;75.54
62617;BME280;62539;51.190;6.808;2023-10-13T07:08:06;100567.59;;;20.48;75.89
62617;BME280;62539;51.190;6.808;2023-10-13T07:10:32;100565.38;;;20.38;76.86
62617;BME280;62539;51.190;6.808;2023-10-13T07:13:10;100569.78;;;20.38;76.68
62617;BME280;62539;51.190;6.808;2023-10-13T07:15:38;100564.72;;;20.52;75.83
62617;BME280;62539;51.190;6.808;2023-10-13T07:18:11;100569.06;;;20.53;75.58
62617;BME280;62539;51.190;6.808;2023-10-13T07:20:42;100570.50;;;20.61;75.21
62617;BME280;62539;51.190;6.808;2023-10-13T07:23:13;100569.41;;;20.65;75.67
62617;BME280;62539;51.190;6.808;2023-10-13T07:25:52;100567.44;;;20.70;74.45
62617;BME280;62539;51.190;6.808;2023-10-13T07:28:31;100563.09;;;20.69;74.82
62617;BME280;62539;51.190;6.808;2023-10-13T07:31:04;100563.09;;;20.69;74.67
62617;BME280;62539;51.190;6.808;2023-10-13T07:33:29;100560.44;;;20.69;74.48
62617;BME280;62539;51.190;6.808;2023-10-13T07:36:06;100561.22;;;20.71;74.00
62617;BME280;62539;51.190;6.808;2023-10-13T07:38:37;100556.69;;;20.75;74.34
62617;BME280;62539;51.190;6.808;2023-10-13T07:41:03;100558.78;;;20.87;73.12
62617;BME280;62539;51.190;6.808;2023-10-13T07:43:34;100548.56;;;20.79;74.45
62617;BME280;62539;51.190;6.808;2023-10-13T07:46:02;100558.97;;;20.82;74.28
62617;BME280;62539;51.190;6.808;2023-10-13T07:48:37;100549.69;;;20.74;75.02
62617;BME280;62539;51.190;6.808;2023-10-13T07:51:07;100548.00;;;20.73;75.70
62617;BME280;62539;51.190;6.808;2023-10-13T07:53:39;100542.72;;;20.73;75.88
62617;BME280;62539;51.190;6.808;2023-10-13T07:56:08;100534.09;;;20.88;75.57
62617;BME280;62539;51.190;6.808;2023-10-13T07:58:38;100537.19;;;20.79;75.88
62617;BME280;62539;51.190;6.808;2023-10-13T08:01:18;100539.06;;;20.75;76.27
62617;BME280;62539;51.190;6.808;2023-10-13T08:03:45;100545.28;;;20.74;76.74
62617;BME280;62539;51.190;6.808;2023-10-13T08:06:16;100543.78;;;20.88;76.37
62617;BME280;62539;51.190;6.808;2023-10-13T08:08:42;100535.72;;;20.91;75.57
62617;BME280;62539;51.190;6.808;2023-10-13T08:11:13;100526.59;;;20.98;75.71
62617;BME280;62539;51.190;6.808;2023-10-13T08:13:58;100523.66;;;21.04;74.90
62617;BME280;62539;51.190;6.808;2023-10-13T08:16:33;100517.75;;;20.99;75.08
62617;BME280;62539;51.190;6.808;2023-10-13T08:19:25;100522.25;;;20.97;75.51
62617;BME280;62539;51.190;6.808;2023-10-13T08:22:10;100506.44;;;21.14;74.57
62617;BME280;62539;51.190;6.808;2023-10-13T08:24:42;100512.25;;;21.21;73.68
62617;BME280;62539;51.190;6.808;2023-10-13T08:27:08;100518.25;;;21.25;74.00
62617;BME280;62539;51.190;6.808;2023-10-13T08:29:39;100516.09;;;21.33;74.08
62617;BME280;62539;51.190;6.808;2023-10-13T08:32:24;100520.25;;;21.55;73.11
62617;BME280;62539;51.190;6.808;2023-10-13T08:34:55;100523.38;;;21.81;72.74
62617;BME280;62539;51.190;6.808;2023-10-13T08:37:27;100522.47;;;21.98;71.17
62617;BME280;62539;51.190;6.808;2023-10-13T08:39:58;100524.00;;;22.02;71.47
62617;BME280;62539;51.190;6.808;2023-10-13T08:42:34;100522.34;;;22.17;71.55
62617;BME280;62539;51.190;6.808;2023-10-13T08:45:12;100516.84;;;22.38;70.69
62617;BME280;62539;51.190;6.808;2023-10-13T08:47:57;100516.28;;;22.65;68.26
62617;BME280;62539;51.190;6.808;2023-10-13T08:50:41;100506.53;;;22.81;66.96
62617;BME280;62539;51.190;6.808;2023-10-13T08:53:20;100506.31;;;23.00;66.00
62617;BME280;62539;51.190;6.808;2023-10-13T08:58:45;100503.75;;;23.15;64.60
62617;BME280;62539;51.190;6.808;2023-10-13T09:01:25;100500.03;;;23.03;64.86
62617;BME280;62539;51.190;6.808;2023-10-13T09:04:17;100498.50;;;22.99;64.58
62617;BME280;62539;51.190;6.808;2023-10-13T09:07:01;100498.69;;;22.96;65.80
62617;BME280;62539;51.190;6.808;2023-10-13T09:09:31;100487.59;;;23.19;64.41
62617;BME280;62539;51.190;6.808;2023-10-13T09:12:24;100490.63;;;23.58;62.81
62617;BME280;62539;51.190;6.808;2023-10-13T09:14:57;100485.34;;;23.73;61.61
62617;BME280;62539;51.190;6.808;2023-10-13T09:17:27;100477.88;;;23.51;62.56
62617;BME280;62539;51.190;6.808;2023-10-13T09:20:05;100481.16;;;23.40;62.56
62617;BME280;62539;51.190;6.808;2023-10-13T09:22:52;100470.13;;;23.62;61.82
62617;BME280;62539;51.190;6.808;2023-10-13T09:25:28;100470.69;;;23.67;61.91
62617;BME280;62539;51.190;6.808;2023-10-13T09:28:14;100467.88;;;23.70;61.27
62617;BME280;62539;51.190;6.808;2023-10-13T09:30:47;100465.59;;;23.64;61.80
62617;BME280;62539;51.190;6.808;2023-10-13T09:33:20;100450.16;;;23.56;61.51
62617;BME280;62539;51.190;6.808;2023-10-13T09:35:54;100455.00;;;23.64;61.34
62617;BME280;62539;51.190;6.808;2023-10-13T09:38:20;100444.41;;;23.78;61.15
62617;BME280;62539;51.190;6.808;2023-10-13T09:40:48;100447.22;;;23.90;60.53
62617;BME280;62539;51.190;6.808;2023-10-13T09:43:24;100443.06;;;24.00;60.02
62617;BME280;62539;51.190;6.808;2023-10-13T09:45:58;100452.44;;;24.06;59.96
62617;BME280;62539;51.190;6.808;2023-10-13T09:48:33;100438.25;;;24.07;60.05
62617;BME280;62539;51.190;6.808;2023-10-13T09:51:03;100434.25;;;24.14;59.49
62617;BME280;62539;51.190;6.808;2023-10-13T09:53:35;100430.94;;;24.11;59.99
62617;BME280;62539;51.190;6.808;2023-10-13T09:56:12;100426.78;;;24.06;59.75
62617;BME280;62539;51.190;6.808;2023-10-13T09:58:52;100420.25;;;23.98;59.97
62617;BME280;62539;51.190;6.808;2023-10-13T10:01:24;100430.75;;;23.99;60.11
62617;BME280;62539;51.190;6.808;2023-10-13T10:04:09;100425.63;;;23.96;59.95
62617;BME280;62539;51.190;6.808;2023-10-13T10:06:54;100423.72;;;23.98;60.18
62617;BME280;62539;51.190;6.808;2023-10-13T10:09:27;100431.13;;;23.93;60.02
62617;BME280;62539;51.190;6.808;2023-10-13T10:12:18;100428.97;;;23.85;60.50
62617;BME280;62539;51.190;6.808;2023-10-13T10:15:07;100437.22;;;23.81;60.56
62617;BME280;62539;51.190;6.808;2023-10-13T10:17:45;100441.84;;;23.77;60.45
62617;BME280;62539;51.190;6.808;2023-10-13T10:20:12;100439.50;;;23.72;60.84
62617;BME280;62539;51.190;6.808;2023-10-13T10:22:55;100425.69;;;23.67;60.32
62617;BME280;62539;51.190;6.808;2023-10-13T10:25:31;100432.31;;;23.74;59.87
62617;BME280;62539;51.190;6.808;2023-10-13T10:28:05;100423.78;;;23.84;59.68
62617;BME280;62539;51.190;6.808;2023-10-13T10:30:37;100426.13;;;23.88;59.64
62617;BME280;62539;51.190;6.808;2023-10-13T10:33:08;100412.88;;;23.88;59.19
62617;BME280;62539;51.190;6.808;2023-10-13T10:35:42;100405.88;;;23.87;59.08
62617;BME280;62539;51.190;6.808;2023-10-13T10:38:16;100397.81;;;23.89;58.09
62617;BME280;62539;51.190;6.808;2023-10-13T10:41:06;100391.69;;;23.88;59.03
62617;BME280;62539;51.190;6.808;2023-10-13T10:46:27;100397.06;;;24.01;57.94
62617;BME280;62539;51.190;6.808;2023-10-13T10:48:55;100394.41;;;24.16;57.67
62617;BME280;62539;51.190;6.808;2023-10-13T10:51:27;100389.59;;;24.35;56.93
62617;BME280;62539;51.190;6.808;2023-10-13T10:53:57;100391.25;;;24.51;56.60
62617;BME280;62539;51.190;6.808;2023-10-13T10:56:36;100389.00;;;24.45;56.86
62617;BME280;62539;51.190;6.808;2023-10-13T10:59:03;100385.84;;;24.25;57.71
62617;BME280;62539;51.190;6.808;2023-10-13T11:01:31;100383.59;;;24.19;57.32
62617;BME280;62539;51.190;6.808;2023-10-13T11:04:05;100368.28;;;24.10;57.83
62617;BME280;62539;51.190;6.808;2023-10-13T11:06:56;100370.50;;;24.03;57.76
62617;BME280;62539;51.190;6.808;2023-10-13T11:11:55;100362.25;;;23.93;57.96
62617;BME280;62539;51.190;6.808;2023-10-13T11:14:26;100354.91;;;23.84;58.00
62617;BME280;62539;51.190;6.808;2023-10-13T11:16:54;100345.78;;;23.88;57.98
62617;BME280;62539;51.190;6.808;2023-10-13T11:19:40;100348.00;;;23.81;57.90
62617;BME280;62539;51.190;6.808;2023-10-13T11:22:16;100347.34;;;23.77;57.91
62617;BME280;62539;51.190;6.808;2023-10-13T11:25:06;100352.84;;;23.74;57.76
62617;BME280;62539;51.190;6.808;2023-10-13T11:27:43;100337.16;;;23.71;58.24
62617;BME280;62539;51.190;6.808;2023-10-13T11:30:12;100329.66;;;23.78;57.74
62617;BME280;62539;51.190;6.808;2023-10-13T11:32:41;100338.28;;;23.82;57.53
62617;BME280;62539;51.190;6.808;2023-10-13T11:35:10;100325.09;;;23.80;57.63
62617;BME280;62539;51.190;6.808;2023-10-13T11:37:54;100323.97;;;23.84;57.63
62617;BME280;62539;51.190;6.808;2023-10-13T11:40:29;100317.13;;;23.95;57.27
62617;BME280;62539;51.190;6.808;2023-10-13T11:43:14;100315.09;;;23.98;56.91
62617;BME280;62539;51.190;6.808;2023-10-13T11:45:41;100306.41;;;23.96;57.00
62617;BME280;62539;51.190;6.808;2023-10-13T11:48:25;100308.63;;;23.89;56.64
62617;BME280;62539;51.190;6.808;2023-10-13T11:51:11;100294.72;;;23.86;56.87
62617;BME280;62539;51.190;6.808;2023-10-13T11:53:49;100303.84;;;23.82;57.07
62617;BME280;62539;51.190;6.808;2023-10-13T11:56:19;100310.16;;;23.79;56.88
62617;BME280;62539;51.190;6.808;2023-10-13T11:58:48;100300.91;;;23.72;57.13
62617;BME280;62539;51.190;6.808;2023-10-13T12:01:15;100307.06;;;23.72;56.83
62617;BME280;62539;51.190;6.808;2023-10-13T12:03:48;100308.59;;;23.76;55.41
62617;BME280;62539;51.190;6.808;2023-10-13T12:06:52;100302.66;;;23.86;55.04
62617;BME280;62539;51.190;6.808;2023-10-13T12:09:37;100297.16;;;23.89;55.50
62617;BME280;62539;51.190;6.808;2023-10-13T12:12:27;100298.66;;;23.93;56.05
62617;BME280;62539;51.190;6.808;2023-10-13T12:14:55;100296.97;;;23.92;54.92
62617;BME280;62539;51.190;6.808;2023-10-13T12:17:26;100295.72;;;23.98;54.84
62617;BME280;62539;51.190;6.808;2023-10-13T12:19:59;100294.03;;;23.97;55.48
62617;BME280;62539;51.190;6.808;2023-10-13T12:22:25;100291.25;;;23.98;55.29
62617;BME280;62539;51.190;6.808;2023-10-13T12:24:56;100283.53;;;23.95;54.79
62617;BME280;62539;51.190;6.808;2023-10-13T12:27:22;100284.97;;;24.01;54.54
62617;BME280;62539;51.190;6.808;2023-10-13T12:29:59;100288.25;;;24.04;53.89
62617;BME280;62539;51.190;6.808;2023-10-13T12:32:32;100281.78;;;24.08;54.24
62617;BME280;62539;51.190;6.808;2023-10-13T12:34:59;100279.91;;;24.11;53.81
62617;BME280;62539;51.190;6.808;2023-10-13T12:37:26;100273.75;;;24.10;53.63
62617;BME280;62539;51.190;6.808;2023-10-13T12:40:13;100278.19;;;24.10;53.38
62617;BME280;62539;51.190;6.808;2023-10-13T12:42:58;100275.75;;;24.06;54.18
62617;BME280;62539;51.190;6.808;2023-10-13T12:45:44;100272.16;;;24.07;52.65
62617;BME280;62539;51.190;6.808;2023-10-13T12:48:32;100260.41;;;24.12;52.74
62617;BME280;62539;51.190;6.808;2023-10-13T12:51:17;100267.00;;;24.19;52.58
62617;BME280;62539;51.190;6.808;2023-10-13T12:56:14;100249.09;;;24.22;52.89
62617;BME280;62539;51.190;6.808;2023-10-13T12:58:40;100263.19;;;24.23;53.51
62617;BME280;62539;51.190;6.808;2023-10-13T13:01:06;100268.28;;;24.26;53.44
62617;BME280;62539;51.190;6.808;2023-10-13T13:03:32;100268.28;;;24.26;53.48
62617;BME280;62539;51.190;6.808;2023-10-13T13:05:58;100268.47;;;24.23;53.97
62617;BME280;62539;51.190;6.808;2023-10-13T13:08:23;100268.28;;;24.26;54.00
62617;BME280;62539;51.190;6.808;2023-10-13T13:10:50;100268.28;;;24.26;53.48
62617;BME280;62539;51.190;6.808;2023-10-13T13:13:17;100267.72;;;24.21;54.33
62617;BME280;62539;51.190;6.808;2023-10-13T13:15:49;100265.94;;;24.21;53.88
62617;BME280;62539;51.190;6.808;2023-10-13T13:18:15;100270.38;;;24.21;53.10
62617;BME280;62539;51.190;6.808;2023-10-13T13:20:41;100271.34;;;24.20;53.36
62617;BME280;62539;51.190;6.808;2023-10-13T13:23:18;100274.41;;;24.14;52.88
62617;BME280;62539;51.190;6.808;2023-10-13T13:25:45;100268.25;;;24.13;52.65
62617;BME280;62539;51.190;6.808;2023-10-13T13:28:11;100266.34;;;24.15;51.70
62617;BME280;62539;51.190;6.808;2023-10-13T13:30:37;100274.19;;;24.17;51.60
62617;BME280;62539;51.190;6.808;2023-10-13T13:33:04;100268.34;;;24.12;53.46
62617;BME280;62539;51.190;6.808;2023-10-13T13:35:37;100268.94;;;24.02;53.85
62617;BME280;62539;51.190;6.808;2023-10-13T13:38:08;100276.53;;;23.94;54.06
62617;BME280;62539;51.190;6.808;2023-10-13T13:40:54;100271.63;;;23.88;54.40
62617;BME280;62539;51.190;6.808;2023-10-13T13:43:23;100264.84;;;23.84;54.63
62617;BME280;62539;51.190;6.808;2023-10-13T13:46:04;100260.03;;;23.76;55.27